createdAt,value
2019-05-15T00:00:51.437Z,7.60
2019-05-15T00:05:49.338Z,7.40
2019-05-15T00:10:44.361Z,7.50
2019-05-15T00:15:40.403Z,7.40
2019-05-15T00:20:36.084Z,7.40
2019-05-15T00:25:31.668Z,7.30
2019-05-15T00:30:28.999Z,7.30
2019-05-15T00:35:27.567Z,7.30
2019-05-15T00:40:21.872Z,7.40
2019-05-15T00:45:18.913Z,7.40
2019-05-15T00:50:14.658Z,7.40
2019-05-15T00:55:11.181Z,7.30
2019-05-15T01:00:08.715Z,7.40
2019-05-15T01:05:04.493Z,7.40
2019-05-15T01:10:00.151Z,7.30
2019-05-15T01:14:55.721Z,7.20
2019-05-15T01:19:51.257Z,7.30
2019-05-15T01:24:48.539Z,7.30
2019-05-15T01:29:45.317Z,7.20
2019-05-15T01:34:40.930Z,7.20
2019-05-15T01:39:38.540Z,7.30
2019-05-15T01:44:33.619Z,7.30
2019-05-15T01:49:29.163Z,7.30
2019-05-15T01:54:24.688Z,7.30
2019-05-15T01:59:20.253Z,7.30
2019-05-15T02:04:15.800Z,7.30
2019-05-15T02:09:11.356Z,7.30
2019-05-15T02:14:08.328Z,7.30
2019-05-15T02:19:04.441Z,7.30
2019-05-15T02:24:00.056Z,7.20
2019-05-15T02:28:55.646Z,7.10
2019-05-15T02:33:51.261Z,7.10
2019-05-15T02:38:48.677Z,7.20
2019-05-15T02:43:43.994Z,7.20
2019-05-15T02:48:40.863Z,7.10
2019-05-15T02:53:39.548Z,7.10
2019-05-15T02:58:34.119Z,7.10
2019-05-15T03:03:29.719Z,7.00
2019-05-15T03:08:25.354Z,7.00
2019-05-15T03:13:21.158Z,7.10
2019-05-15T03:18:19.170Z,7.00
2019-05-15T03:23:14.007Z,7.00
2019-05-15T03:28:11.197Z,7.00
2019-05-15T03:33:14.048Z,7.10
2019-05-15T03:38:04.159Z,7.20
2019-05-15T03:43:02.593Z,7.20
2019-05-15T03:47:59.536Z,7.20
2019-05-15T03:52:55.261Z,7.20
2019-05-15T03:57:50.849Z,7.20
2019-05-15T04:02:48.830Z,7.20
2019-05-15T04:07:43.783Z,7.20
2019-05-15T04:12:41.015Z,7.20
2019-05-15T04:17:39.613Z,7.30
2019-05-15T04:22:35.981Z,7.30
2019-05-15T04:27:31.967Z,7.30
2019-05-15T04:32:28.880Z,7.30
2019-05-15T04:37:24.707Z,7.30
2019-05-15T04:42:20.564Z,7.30
2019-05-15T04:47:19.048Z,7.30
2019-05-15T04:52:13.628Z,7.30
2019-05-15T04:57:09.505Z,7.30
2019-05-15T05:02:16.921Z,7.30
2019-05-15T05:07:02.498Z,7.30
2019-05-15T05:11:58.304Z,7.30
2019-05-15T05:16:54.085Z,7.30
2019-05-15T05:21:49.716Z,7.40
2019-05-15T05:26:45.342Z,7.40
2019-05-15T05:31:41.037Z,7.50
2019-05-15T05:36:38.615Z,7.60
2019-05-15T05:41:35.369Z,7.60
2019-05-15T05:46:30.983Z,7.70
2019-05-15T05:51:28.193Z,7.80
2019-05-15T05:56:23.946Z,7.80
2019-05-15T06:01:20.536Z,7.90
2019-05-15T06:06:18.456Z,7.90
2019-05-15T06:11:13.617Z,8.00
2019-05-15T06:16:09.187Z,8.20
2019-05-15T06:21:10.818Z,8.30
2019-05-15T06:26:09.101Z,8.40
2019-05-15T06:31:03.990Z,8.60
2019-05-15T06:35:59.549Z,8.70
2019-05-15T06:40:55.130Z,8.70
2019-05-15T06:45:50.797Z,8.80
2019-05-15T06:50:48.685Z,8.90
2019-05-15T06:55:43.797Z,9.00
2019-05-15T07:00:39.366Z,9.10
2019-05-15T07:05:35.194Z,9.10
2019-05-15T07:10:30.947Z,9.20
2019-05-15T07:15:27.924Z,9.40
2019-05-15T07:20:24.945Z,9.60
2019-05-15T07:25:22.077Z,9.80
2019-05-15T07:30:18.728Z,9.90
2019-05-15T07:35:14.965Z,9.90
2019-05-15T07:40:11.346Z,10.10
2019-05-15T07:45:08.985Z,10.20
2019-05-15T07:50:08.470Z,10.30
2019-05-15T07:55:03.467Z,10.30
2019-05-15T07:59:59.112Z,10.40
2019-05-15T08:04:54.709Z,10.50
2019-05-15T08:09:50.258Z,10.70
2019-05-15T08:14:48.352Z,10.70
2019-05-15T08:19:43.124Z,10.70
2019-05-15T08:24:39.289Z,10.70
2019-05-15T08:29:38.348Z,10.80
2019-05-15T08:34:33.977Z,10.70
2019-05-15T08:39:29.645Z,10.70
2019-05-15T08:44:25.361Z,10.80
2019-05-15T08:49:21.050Z,11.00
2019-05-15T08:54:18.375Z,11.10
2019-05-15T08:59:14.007Z,11.30
2019-05-15T09:04:09.601Z,11.40
2019-05-15T09:09:09.569Z,11.50
2019-05-15T09:14:04.500Z,11.40
2019-05-15T09:19:00.106Z,11.30
2019-05-15T09:23:58.701Z,11.30
2019-05-15T09:28:53.119Z,11.50
2019-05-15T09:33:49.428Z,11.60
2019-05-15T09:38:45.224Z,11.60
2019-05-15T09:43:42.436Z,11.70
2019-05-15T09:48:39.259Z,11.70
2019-05-15T09:53:34.938Z,11.80
2019-05-15T09:58:30.603Z,12.10
2019-05-15T10:03:28.215Z,12.50
2019-05-15T10:08:25.257Z,12.60
2019-05-15T10:13:23.484Z,12.80
2019-05-15T10:18:19.483Z,12.80
2019-05-15T10:23:19.098Z,13.10
2019-05-15T10:28:15.315Z,13.00
2019-05-15T10:33:10.885Z,13.00
2019-05-15T10:38:08.784Z,13.10
2019-05-15T10:43:04.539Z,13.10
2019-05-15T10:48:00.126Z,13.10
2019-05-15T10:52:55.802Z,13.20
2019-05-15T10:57:51.794Z,13.20
2019-05-15T11:02:48.944Z,13.10
2019-05-15T11:07:44.725Z,13.20
2019-05-15T11:12:40.933Z,13.20
2019-05-15T11:17:38.559Z,13.10
2019-05-15T11:22:34.454Z,13.00
2019-05-15T11:27:31.401Z,13.10
2019-05-15T11:32:29.420Z,13.00
2019-05-15T11:37:24.457Z,13.10
2019-05-15T11:42:20.441Z,13.00
2019-05-15T11:47:18.289Z,12.90
2019-05-15T11:52:13.765Z,12.80
2019-05-15T11:57:10.178Z,12.80
2019-05-15T12:02:08.539Z,12.70
2019-05-15T12:07:04.292Z,12.70
2019-05-15T12:12:01.428Z,12.60
2019-05-15T12:17:07.110Z,12.50
2019-05-15T12:21:54.237Z,12.50
2019-05-15T12:26:49.838Z,12.60
2019-05-15T12:31:45.461Z,12.60
2019-05-15T12:36:52.148Z,12.50
2019-05-15T13:01:29.843Z,12.10
2019-05-15T13:06:28.314Z,12.00
2019-05-15T13:11:22.713Z,12.00
2019-05-15T13:16:18.834Z,11.90
2019-05-15T13:21:14.629Z,11.90
2019-05-15T13:26:22.939Z,12.00
2019-05-15T13:31:10.933Z,12.00
2019-05-15T13:36:08.723Z,12.00
2019-05-15T13:41:03.931Z,12.10
2019-05-15T13:46:01.190Z,12.10
2019-05-15T13:50:59.023Z,12.00
2019-05-15T13:55:53.975Z,11.90
2019-05-15T14:00:49.628Z,12.00
2019-05-15T14:05:45.296Z,11.90
2019-05-15T14:10:40.835Z,12.00
2019-05-15T14:15:38.233Z,11.90
2019-05-15T14:20:33.661Z,11.90
2019-05-15T14:25:29.249Z,11.90
2019-05-15T14:30:25.033Z,12.00
2019-05-15T14:35:20.657Z,12.10
2019-05-15T14:40:17.779Z,12.10
2019-05-15T14:45:13.542Z,11.90
2019-05-15T14:50:10.309Z,11.90
2019-05-15T14:55:06.354Z,11.90
2019-05-15T15:00:02.877Z,11.70
2019-05-15T15:04:59.680Z,11.60
2019-05-15T15:09:58.163Z,11.60
2019-05-15T15:14:53.836Z,11.50
2019-05-15T15:19:51.484Z,11.40
2019-05-15T15:24:48.224Z,11.40
2019-05-15T15:29:43.825Z,11.30
2019-05-15T15:34:41.161Z,11.20
2019-05-15T15:39:38.674Z,10.90
2019-05-15T15:44:37.893Z,10.70
2019-05-15T15:49:33.021Z,10.40
2019-05-15T15:54:28.699Z,10.20
2019-05-15T15:59:24.372Z,10.00
2019-05-15T16:04:19.973Z,10.00
2019-05-15T16:09:15.885Z,9.90
2019-05-15T16:14:11.652Z,10.00
2019-05-15T16:19:08.495Z,10.10
2019-05-15T16:24:14.838Z,10.30
2019-05-15T16:29:01.859Z,10.30
2019-05-15T16:33:58.592Z,10.40
2019-05-15T16:39:05.190Z,10.30
2019-05-15T16:43:51.553Z,10.20
2019-05-15T16:48:49.462Z,10.20
2019-05-15T16:53:45.985Z,10.20
2019-05-15T16:58:41.707Z,10.20
2019-05-15T17:03:38.095Z,10.30
2019-05-15T17:08:33.815Z,10.30
2019-05-15T17:13:29.513Z,10.20
2019-05-15T17:18:25.177Z,10.20
2019-05-15T17:23:20.952Z,10.20
2019-05-15T17:28:18.550Z,10.00
2019-05-15T17:33:13.934Z,9.90
2019-05-15T17:38:09.691Z,9.90
2019-05-15T17:43:05.349Z,9.90
2019-05-15T17:48:01.212Z,9.90
2019-05-15T17:52:58.702Z,9.90
2019-05-15T17:57:58.354Z,9.90
2019-05-15T18:02:52.374Z,9.90
2019-05-15T18:07:49.015Z,9.80
2019-05-15T18:12:45.026Z,9.80
2019-05-15T18:17:41.275Z,9.80
2019-05-15T18:22:40.051Z,9.70
2019-05-15T18:27:38.527Z,9.60
2019-05-15T18:32:33.451Z,9.50
2019-05-15T18:37:30.201Z,9.40
2019-05-15T18:42:29.083Z,9.30
2019-05-15T18:47:23.639Z,9.20
2019-05-15T18:52:19.894Z,9.20
2019-05-15T18:57:18.511Z,9.30
2019-05-15T19:02:14.363Z,9.20
2019-05-15T19:07:11.227Z,9.00
2019-05-15T19:12:09.408Z,9.00
2019-05-15T19:17:05.603Z,9.00
2019-05-15T19:22:01.369Z,9.00
2019-05-15T19:26:58.660Z,9.00
2019-05-15T19:31:55.603Z,8.90
2019-05-15T19:36:51.321Z,8.90
2019-05-15T19:41:50.676Z,8.90
2019-05-15T19:46:48.108Z,9.00
2019-05-15T19:51:48.508Z,9.00
2019-05-15T19:56:43.623Z,9.00
2019-05-15T20:01:42.389Z,8.90
2019-05-15T20:06:38.749Z,8.90
2019-05-15T20:11:35.597Z,8.90
2019-05-15T20:16:32.480Z,8.90
2019-05-15T20:21:29.052Z,8.90
2019-05-15T20:26:29.578Z,8.90
2019-05-15T20:31:28.218Z,8.90
2019-05-15T20:36:22.771Z,8.90
2019-05-15T20:41:18.798Z,8.90
2019-05-15T20:46:14.749Z,8.80
2019-05-15T20:51:10.673Z,8.80
2019-05-15T20:56:08.704Z,8.70
2019-05-15T21:01:04.668Z,8.70
2019-05-15T21:06:00.780Z,8.70
2019-05-15T21:10:58.908Z,8.80
2019-05-15T21:15:54.921Z,8.80
2019-05-15T21:20:50.720Z,8.70
2019-05-15T21:25:48.300Z,8.70
2019-05-15T21:30:44.527Z,8.60
2019-05-15T21:35:40.065Z,8.60
2019-05-15T21:40:38.452Z,8.60
2019-05-15T21:45:33.301Z,8.60
2019-05-15T21:50:28.978Z,8.60
2019-05-15T21:55:24.510Z,8.60
2019-05-15T22:05:31.286Z,8.70
2019-05-15T22:10:28.790Z,8.70
2019-05-15T22:15:25.300Z,8.60
2019-05-15T22:20:20.894Z,8.60
2019-05-15T22:25:19.031Z,8.60
2019-05-15T22:30:15.940Z,8.50
2019-05-15T22:35:14.026Z,8.50
2019-05-15T22:40:09.527Z,8.60
2019-05-15T22:45:05.635Z,8.60
2019-05-15T22:50:01.406Z,8.60
2019-05-15T22:54:58.382Z,8.60
2019-05-15T22:59:54.103Z,8.50
2019-05-15T23:04:49.618Z,8.50
2019-05-15T23:09:45.158Z,8.50
2019-05-15T23:14:40.869Z,8.50
2019-05-15T23:19:38.451Z,8.50
2019-05-15T23:24:33.474Z,8.50
2019-05-15T23:29:29.001Z,8.40
2019-05-15T23:34:24.470Z,8.40
2019-05-15T23:39:20.010Z,8.40
2019-05-15T23:44:18.228Z,8.40
2019-05-15T23:49:13.010Z,8.40
2019-05-15T23:54:08.554Z,8.40
2019-05-15T23:59:04.081Z,8.40
